sensor_id;sensor_type;location;lat;lon;timestamp;temperature;humidity
3312;DHT22;1668;49.648;8.570;2023-02-13T00:00:58;3.50;89.40
3312;DHT22;1668;49.648;8.570;2023-02-13T00:03:25;3.50;86.80
3312;DHT22;1668;49.648;8.570;2023-02-13T00:05:51;3.40;83.90
3312;DHT22;1668;49.648;8.570;2023-02-13T00:08:18;3.40;72.30
3312;DHT22;1668;49.648;8.570;2023-02-13T00:10:47;3.40;83.40
3312;DHT22;1668;49.648;8.570;2023-02-13T00:13:14;3.40;85.70
3312;DHT22;1668;49.648;8.570;2023-02-13T00:15:41;3.30;90.90
3312;DHT22;1668;49.648;8.570;2023-02-13T00:18:08;3.30;91.90
3312;DHT22;1668;49.648;8.570;2023-02-13T00:20:35;3.30;86.60
3312;DHT22;1668;49.648;8.570;2023-02-13T00:23:01;3.30;79.70
3312;DHT22;1668;49.648;8.570;2023-02-13T00:25:28;3.20;76.60
3312;DHT22;1668;49.648;8.570;2023-02-13T00:27:56;3.20;55.50
3312;DHT22;1668;49.648;8.570;2023-02-13T00:30:23;3.20;49.80
3312;DHT22;1668;49.648;8.570;2023-02-13T00:32:50;3.10;51.20
3312;DHT22;1668;49.648;8.570;2023-02-13T00:35:17;3.10;56.10
3312;DHT22;1668;49.648;8.570;2023-02-13T00:37:44;3.10;38.50
3312;DHT22;1668;49.648;8.570;2023-02-13T00:40:11;3.10;38.60
3312;DHT22;1668;49.648;8.570;2023-02-13T00:42:38;3.00;30.60
3312;DHT22;1668;49.648;8.570;2023-02-13T00:45:07;3.00;25.00
3312;DHT22;1668;49.648;8.570;2023-02-13T00:47:34;3.00;28.60
3312;DHT22;1668;49.648;8.570;2023-02-13T00:50:01;3.00;29.40
3312;DHT22;1668;49.648;8.570;2023-02-13T00:52:28;3.00;21.90
3312;DHT22;1668;49.648;8.570;2023-02-13T00:54:54;2.90;14.60
3312;DHT22;1668;49.648;8.570;2023-02-13T00:57:21;2.90;3.90
3312;DHT22;1668;49.648;8.570;2023-02-13T00:59:48;2.90;1.00
3312;DHT22;1668;49.648;8.570;2023-02-13T01:02:17;2.80;1.00
3312;DHT22;1668;49.648;8.570;2023-02-13T01:04:44;2.90;1.00
3312;DHT22;1668;49.648;8.570;2023-02-13T01:07:11;2.80;1.00
3312;DHT22;1668;49.648;8.570;2023-02-13T01:09:38;2.80;1.00
3312;DHT22;1668;49.648;8.570;2023-02-13T01:12:05;2.80;1.00
3312;DHT22;1668;49.648;8.570;2023-02-13T01:14:32;2.80;1.00
3312;DHT22;1668;49.648;8.570;2023-02-13T01:16:59;2.80;1.00
3312;DHT22;1668;49.648;8.570;2023-02-13T01:19:27;2.70;1.00
3312;DHT22;1668;49.648;8.570;2023-02-13T01:21:54;2.70;1.00
3312;DHT22;1668;49.648;8.570;2023-02-13T01:24:21;2.70;1.00
3312;DHT22;1668;49.648;8.570;2023-02-13T01:26:48;2.70;14.30
3312;DHT22;1668;49.648;8.570;2023-02-13T01:29:15;2.70;28.20
3312;DHT22;1668;49.648;8.570;2023-02-13T01:31:41;2.70;34.20
3312;DHT22;1668;49.648;8.570;2023-02-13T01:34:08;2.70;38.40
3312;DHT22;1668;49.648;8.570;2023-02-13T01:36:36;2.70;52.40
3312;DHT22;1668;49.648;8.570;2023-02-13T01:39:03;2.60;67.20
3312;DHT22;1668;49.648;8.570;2023-02-13T01:41:30;2.60;83.60
3312;DHT22;1668;49.648;8.570;2023-02-13T01:43:58;2.60;92.90
3312;DHT22;1668;49.648;8.570;2023-02-13T01:46:28;2.60;94.00
3312;DHT22;1668;49.648;8.570;2023-02-13T01:48:59;2.60;94.80
3312;DHT22;1668;49.648;8.570;2023-02-13T01:51:30;2.50;96.00
3312;DHT22;1668;49.648;8.570;2023-02-13T01:54:03;2.50;99.30
3312;DHT22;1668;49.648;8.570;2023-02-13T01:56:35;2.50;99.90
3312;DHT22;1668;49.648;8.570;2023-02-13T01:59:06;2.50;99.90
3312;DHT22;1668;49.648;8.570;2023-02-13T02:01:36;2.50;99.90
3312;DHT22;1668;49.648;8.570;2023-02-13T02:04:07;2.40;99.90
3312;DHT22;1668;49.648;8.570;2023-02-13T02:06:38;2.40;99.90
3312;DHT22;1668;49.648;8.570;2023-02-13T02:09:12;2.40;99.90
3312;DHT22;1668;49.648;8.570;2023-02-13T02:11:45;2.40;99.90
3312;DHT22;1668;49.648;8.570;2023-02-13T02:14:14;2.40;99.90
3312;DHT22;1668;49.648;8.570;2023-02-13T02:16:41;2.40;99.90
3312;DHT22;1668;49.648;8.570;2023-02-13T02:19:13;2.40;99.90
3312;DHT22;1668;49.648;8.570;2023-02-13T02:25:07;2.40;99.90
3312;DHT22;1668;49.648;8.570;2023-02-13T02:31:00;2.40;99.90
3312;DHT22;1668;49.648;8.570;2023-02-13T02:33:41;2.30;99.90
3312;DHT22;1668;49.648;8.570;2023-02-13T02:36:22;2.30;99.90
3312;DHT22;1668;49.648;8.570;2023-02-13T02:39:02;2.30;99.90
3312;DHT22;1668;49.648;8.570;2023-02-13T02:41:40;2.30;99.90
3312;DHT22;1668;49.648;8.570;2023-02-13T02:44:17;2.30;99.90
3312;DHT22;1668;49.648;8.570;2023-02-13T02:46:54;2.30;99.90
3312;DHT22;1668;49.648;8.570;2023-02-13T02:49:44;2.20;99.90
3312;DHT22;1668;49.648;8.570;2023-02-13T02:52:26;2.20;99.90
3312;DHT22;1668;49.648;8.570;2023-02-13T02:55:01;2.20;99.90
3312;DHT22;1668;49.648;8.570;2023-02-13T02:57:34;2.20;99.90
3312;DHT22;1668;49.648;8.570;2023-02-13T03:00:24;2.20;99.90
3312;DHT22;1668;49.648;8.570;2023-02-13T03:03:14;2.10;99.90
3312;DHT22;1668;49.648;8.570;2023-02-13T03:06:03;2.10;99.90
3312;DHT22;1668;49.648;8.570;2023-02-13T03:08:39;2.10;99.90
3312;DHT22;1668;49.648;8.570;2023-02-13T03:11:25;2.10;99.90
3312;DHT22;1668;49.648;8.570;2023-02-13T03:14:07;2.10;99.90
3312;DHT22;1668;49.648;8.570;2023-02-13T03:16:35;2.10;99.90
3312;DHT22;1668;49.648;8.570;2023-02-13T03:19:25;2.10;99.90
3312;DHT22;1668;49.648;8.570;2023-02-13T03:22:21;2.10;99.90
3312;DHT22;1668;49.648;8.570;2023-02-13T03:24:58;2.00;99.90
3312;DHT22;1668;49.648;8.570;2023-02-13T03:27:35;2.00;99.90
3312;DHT22;1668;49.648;8.570;2023-02-13T03:30:31;2.00;99.90
3312;DHT22;1668;49.648;8.570;2023-02-13T03:33:10;2.00;99.90
3312;DHT22;1668;49.648;8.570;2023-02-13T03:35:42;1.90;99.90
3312;DHT22;1668;49.648;8.570;2023-02-13T03:38:37;1.90;99.90
3312;DHT22;1668;49.648;8.570;2023-02-13T03:41:12;1.90;99.90
3312;DHT22;1668;49.648;8.570;2023-02-13T03:43:52;1.90;99.90
3312;DHT22;1668;49.648;8.570;2023-02-13T03:46:21;1.90;99.90
3312;DHT22;1668;49.648;8.570;2023-02-13T03:48:50;1.90;99.90
3312;DHT22;1668;49.648;8.570;2023-02-13T03:51:37;1.90;99.90
3312;DHT22;1668;49.648;8.570;2023-02-13T03:54:11;1.90;99.90
3312;DHT22;1668;49.648;8.570;2023-02-13T03:56:43;1.80;99.90
3312;DHT22;1668;49.648;8.570;2023-02-13T03:59:31;1.80;99.90
3312;DHT22;1668;49.648;8.570;2023-02-13T04:02:03;1.80;99.90
3312;DHT22;1668;49.648;8.570;2023-02-13T04:04:39;1.70;99.90
3312;DHT22;1668;49.648;8.570;2023-02-13T04:07:11;1.70;99.90
3312;DHT22;1668;49.648;8.570;2023-02-13T04:09:56;1.70;99.90
3312;DHT22;1668;49.648;8.570;2023-02-13T04:12:32;1.80;99.90
3312;DHT22;1668;49.648;8.570;2023-02-13T04:15:03;1.70;99.90
3312;DHT22;1668;49.648;8.570;2023-02-13T04:17:35;1.70;99.90
3312;DHT22;1668;49.648;8.570;2023-02-13T04:20:04;1.60;99.90
3312;DHT22;1668;49.648;8.570;2023-02-13T04:22:31;1.60;99.90
3312;DHT22;1668;49.648;8.570;2023-02-13T04:24:59;1.60;99.90
3312;DHT22;1668;49.648;8.570;2023-02-13T04:27:27;1.60;99.90
3312;DHT22;1668;49.648;8.570;2023-02-13T04:29:53;1.60;99.90
3312;DHT22;1668;49.648;8.570;2023-02-13T04:32:20;1.50;99.90
3312;DHT22;1668;49.648;8.570;2023-02-13T04:34:47;1.50;99.90
3312;DHT22;1668;49.648;8.570;2023-02-13T04:37:14;1.50;99.90
3312;DHT22;1668;49.648;8.570;2023-02-13T04:39:40;1.50;99.90
3312;DHT22;1668;49.648;8.570;2023-02-13T04:42:09;1.50;99.90
3312;DHT22;1668;49.648;8.570;2023-02-13T04:44:35;1.50;99.90
3312;DHT22;1668;49.648;8.570;2023-02-13T04:47:02;1.40;99.90
3312;DHT22;1668;49.648;8.570;2023-02-13T04:49:29;1.40;99.90
3312;DHT22;1668;49.648;8.570;2023-02-13T04:51:56;1.40;99.90
3312;DHT22;1668;49.648;8.570;2023-02-13T04:54:22;1.40;99.90
3312;DHT22;1668;49.648;8.570;2023-02-13T04:56:49;1.30;99.90
3312;DHT22;1668;49.648;8.570;2023-02-13T04:59:17;1.30;99.90
3312;DHT22;1668;49.648;8.570;2023-02-13T05:01:44;1.30;99.90
3312;DHT22;1668;49.648;8.570;2023-02-13T05:04:11;1.30;99.90
3312;DHT22;1668;49.648;8.570;2023-02-13T05:06:40;1.30;99.90
3312;DHT22;1668;49.648;8.570;2023-02-13T05:09:08;1.30;99.90
3312;DHT22;1668;49.648;8.570;2023-02-13T05:11:35;1.20;99.90
3312;DHT22;1668;49.648;8.570;2023-02-13T05:14:02;1.20;99.90
3312;DHT22;1668;49.648;8.570;2023-02-13T05:16:30;1.20;99.90
3312;DHT22;1668;49.648;8.570;2023-02-13T05:18:57;1.20;99.90
3312;DHT22;1668;49.648;8.570;2023-02-13T05:21:24;1.20;99.90
3312;DHT22;1668;49.648;8.570;2023-02-13T05:24:08;1.10;99.90
3312;DHT22;1668;49.648;8.570;2023-02-13T05:26:35;1.10;99.90
3312;DHT22;1668;49.648;8.570;2023-02-13T05:29:02;1.10;99.90
3312;DHT22;1668;49.648;8.570;2023-02-13T05:31:45;1.10;99.90
3312;DHT22;1668;49.648;8.570;2023-02-13T05:34:12;1.10;99.90
3312;DHT22;1668;49.648;8.570;2023-02-13T05:36:39;1.00;97.10
3312;DHT22;1668;49.648;8.570;2023-02-13T05:39:06;1.00;95.80
3312;DHT22;1668;49.648;8.570;2023-02-13T05:41:34;1.00;94.40
3312;DHT22;1668;49.648;8.570;2023-02-13T05:44:00;1.00;93.50
3312;DHT22;1668;49.648;8.570;2023-02-13T05:46:27;1.00;91.80
3312;DHT22;1668;49.648;8.570;2023-02-13T05:48:55;0.90;87.50
3312;DHT22;1668;49.648;8.570;2023-02-13T05:51:22;0.90;85.70
3312;DHT22;1668;49.648;8.570;2023-02-13T05:53:49;0.90;83.20
3312;DHT22;1668;49.648;8.570;2023-02-13T05:56:16;0.90;79.30
3312;DHT22;1668;49.648;8.570;2023-02-13T05:58:43;0.90;72.10
3312;DHT22;1668;49.648;8.570;2023-02-13T06:01:10;0.90;67.60
3312;DHT22;1668;49.648;8.570;2023-02-13T06:03:37;0.80;69.40
3312;DHT22;1668;49.648;8.570;2023-02-13T06:06:07;0.80;67.70
3312;DHT22;1668;49.648;8.570;2023-02-13T06:08:34;0.80;60.90
3312;DHT22;1668;49.648;8.570;2023-02-13T06:11:01;0.80;59.60
3312;DHT22;1668;49.648;8.570;2023-02-13T06:13:29;0.80;59.70
3312;DHT22;1668;49.648;8.570;2023-02-13T06:15:56;0.80;56.20
3312;DHT22;1668;49.648;8.570;2023-02-13T06:18:23;0.80;51.00
3312;DHT22;1668;49.648;8.570;2023-02-13T06:20:49;0.80;51.70
3312;DHT22;1668;49.648;8.570;2023-02-13T06:23:18;0.70;50.90
3312;DHT22;1668;49.648;8.570;2023-02-13T06:25:45;0.70;46.40
3312;DHT22;1668;49.648;8.570;2023-02-13T06:28:11;0.70;42.90
3312;DHT22;1668;49.648;8.570;2023-02-13T06:30:38;0.70;41.90
3312;DHT22;1668;49.648;8.570;2023-02-13T06:33:05;0.70;38.40
3312;DHT22;1668;49.648;8.570;2023-02-13T06:35:32;0.60;40.10
3312;DHT22;1668;49.648;8.570;2023-02-13T06:37:59;0.60;40.90
3312;DHT22;1668;49.648;8.570;2023-02-13T06:40:27;0.60;44.50
3312;DHT22;1668;49.648;8.570;2023-02-13T06:42:54;0.60;47.30
3312;DHT22;1668;49.648;8.570;2023-02-13T06:45:21;0.60;41.90
3312;DHT22;1668;49.648;8.570;2023-02-13T06:47:48;0.60;45.40
3312;DHT22;1668;49.648;8.570;2023-02-13T06:50:17;0.60;45.90
3312;DHT22;1668;49.648;8.570;2023-02-13T06:52:47;0.50;43.00
3312;DHT22;1668;49.648;8.570;2023-02-13T06:55:15;0.60;52.70
3312;DHT22;1668;49.648;8.570;2023-02-13T06:57:45;0.50;59.80
3312;DHT22;1668;49.648;8.570;2023-02-13T07:00:15;0.50;67.10
3312;DHT22;1668;49.648;8.570;2023-02-13T07:02:43;0.50;70.50
3312;DHT22;1668;49.648;8.570;2023-02-13T07:05:10;0.50;76.70
3312;DHT22;1668;49.648;8.570;2023-02-13T07:07:39;0.50;79.70
3312;DHT22;1668;49.648;8.570;2023-02-13T07:10:08;0.50;80.90
3312;DHT22;1668;49.648;8.570;2023-02-13T07:12:35;0.50;84.50
3312;DHT22;1668;49.648;8.570;2023-02-13T07:15:04;0.50;89.90
3312;DHT22;1668;49.648;8.570;2023-02-13T07:17:32;0.50;91.50
3312;DHT22;1668;49.648;8.570;2023-02-13T07:19:59;0.50;93.10
3312;DHT22;1668;49.648;8.570;2023-02-13T07:22:26;0.50;95.00
3312;DHT22;1668;49.648;8.570;2023-02-13T07:24:53;0.50;97.40
3312;DHT22;1668;49.648;8.570;2023-02-13T07:27:20;0.60;99.80
3312;DHT22;1668;49.648;8.570;2023-02-13T07:29:47;0.60;99.90
3312;DHT22;1668;49.648;8.570;2023-02-13T07:32:15;0.60;99.90
3312;DHT22;1668;49.648;8.570;2023-02-13T07:34:42;0.60;99.90
3312;DHT22;1668;49.648;8.570;2023-02-13T07:37:09;0.60;99.90
3312;DHT22;1668;49.648;8.570;2023-02-13T07:39:36;0.60;99.90
3312;DHT22;1668;49.648;8.570;2023-02-13T07:42:04;0.60;99.90
3312;DHT22;1668;49.648;8.570;2023-02-13T07:44:31;0.70;99.90
3312;DHT22;1668;49.648;8.570;2023-02-13T07:46:58;0.70;99.90
3312;DHT22;1668;49.648;8.570;2023-02-13T07:49:26;0.70;99.90
3312;DHT22;1668;49.648;8.570;2023-02-13T07:51:55;0.70;99.90
3312;DHT22;1668;49.648;8.570;2023-02-13T07:54:22;0.70;99.90
3312;DHT22;1668;49.648;8.570;2023-02-13T07:56:49;0.80;99.90
3312;DHT22;1668;49.648;8.570;2023-02-13T07:59:16;0.80;99.90
3312;DHT22;1668;49.648;8.570;2023-02-13T08:01:43;0.80;99.90
3312;DHT22;1668;49.648;8.570;2023-02-13T08:04:09;0.80;99.90
3312;DHT22;1668;49.648;8.570;2023-02-13T08:06:39;0.80;99.90
3312;DHT22;1668;49.648;8.570;2023-02-13T08:09:06;0.90;99.90
3312;DHT22;1668;49.648;8.570;2023-02-13T08:11:52;0.90;99.90
3312;DHT22;1668;49.648;8.570;2023-02-13T08:14:19;1.00;99.90
3312;DHT22;1668;49.648;8.570;2023-02-13T08:16:46;1.00;99.90
3312;DHT22;1668;49.648;8.570;2023-02-13T08:19:12;1.10;99.90
3312;DHT22;1668;49.648;8.570;2023-02-13T08:21:41;1.10;99.90
3312;DHT22;1668;49.648;8.570;2023-02-13T08:24:07;1.20;99.90
3312;DHT22;1668;49.648;8.570;2023-02-13T08:26:34;1.30;99.90
3312;DHT22;1668;49.648;8.570;2023-02-13T08:29:01;1.50;99.90
3312;DHT22;1668;49.648;8.570;2023-02-13T08:31:28;1.50;99.90
3312;DHT22;1668;49.648;8.570;2023-02-13T08:33:55;1.60;99.90
3312;DHT22;1668;49.648;8.570;2023-02-13T08:36:22;1.60;99.90
3312;DHT22;1668;49.648;8.570;2023-02-13T08:38:50;1.70;99.90
3312;DHT22;1668;49.648;8.570;2023-02-13T08:41:17;1.70;99.90
3312;DHT22;1668;49.648;8.570;2023-02-13T08:43:46;1.80;99.90
3312;DHT22;1668;49.648;8.570;2023-02-13T08:46:13;1.90;99.90
3312;DHT22;1668;49.648;8.570;2023-02-13T08:48:40;1.90;99.90
3312;DHT22;1668;49.648;8.570;2023-02-13T08:51:07;2.00;99.90
3312;DHT22;1668;49.648;8.570;2023-02-13T08:53:35;2.10;99.90
3312;DHT22;1668;49.648;8.570;2023-02-13T08:56:04;2.10;99.90
3312;DHT22;1668;49.648;8.570;2023-02-13T08:58:31;2.20;99.90
3312;DHT22;1668;49.648;8.570;2023-02-13T09:00:58;2.20;99.90
3312;DHT22;1668;49.648;8.570;2023-02-13T09:03:25;2.30;99.90
3312;DHT22;1668;49.648;8.570;2023-02-13T09:05:51;2.40;99.90
3312;DHT22;1668;49.648;8.570;2023-02-13T09:08:18;2.50;99.90
3312;DHT22;1668;49.648;8.570;2023-02-13T09:10:45;2.50;99.90
3312;DHT22;1668;49.648;8.570;2023-02-13T09:13:13;2.60;99.90
3312;DHT22;1668;49.648;8.570;2023-02-13T09:15:40;2.70;99.90
3312;DHT22;1668;49.648;8.570;2023-02-13T09:18:08;2.70;99.90
3312;DHT22;1668;49.648;8.570;2023-02-13T09:20:35;2.80;99.90
3312;DHT22;1668;49.648;8.570;2023-02-13T09:23:01;2.90;99.90
3312;DHT22;1668;49.648;8.570;2023-02-13T09:25:28;3.00;99.90
3312;DHT22;1668;49.648;8.570;2023-02-13T09:27:55;3.00;99.90
3312;DHT22;1668;49.648;8.570;2023-02-13T09:30:23;3.10;99.90
3312;DHT22;1668;49.648;8.570;2023-02-13T09:32:51;3.20;99.90
3312;DHT22;1668;49.648;8.570;2023-02-13T09:35:18;3.20;99.90
3312;DHT22;1668;49.648;8.570;2023-02-13T09:37:45;3.30;99.90
3312;DHT22;1668;49.648;8.570;2023-02-13T09:40:19;3.40;99.90
3312;DHT22;1668;49.648;8.570;2023-02-13T09:42:47;3.60;99.90
3312;DHT22;1668;49.648;8.570;2023-02-13T09:45:16;3.70;99.90
3312;DHT22;1668;49.648;8.570;2023-02-13T09:47:47;3.80;99.90
3312;DHT22;1668;49.648;8.570;2023-02-13T09:50:18;3.90;99.90
3312;DHT22;1668;49.648;8.570;2023-02-13T09:52:49;4.00;99.90
3312;DHT22;1668;49.648;8.570;2023-02-13T09:55:18;4.10;99.90
3312;DHT22;1668;49.648;8.570;2023-02-13T09:57:52;4.20;99.90
3312;DHT22;1668;49.648;8.570;2023-02-13T10:00:25;4.30;99.90
3312;DHT22;1668;49.648;8.570;2023-02-13T10:03:12;4.30;99.90
3312;DHT22;1668;49.648;8.570;2023-02-13T10:05:49;4.50;99.90
3312;DHT22;1668;49.648;8.570;2023-02-13T10:08:33;4.50;99.90
3312;DHT22;1668;49.648;8.570;2023-02-13T10:11:11;4.60;99.90
3312;DHT22;1668;49.648;8.570;2023-02-13T10:13:58;4.70;99.90
3312;DHT22;1668;49.648;8.570;2023-02-13T10:16:29;4.80;99.90
3312;DHT22;1668;49.648;8.570;2023-02-13T10:19:03;5.00;99.90
3312;DHT22;1668;49.648;8.570;2023-02-13T10:21:37;5.10;99.90
3312;DHT22;1668;49.648;8.570;2023-02-13T10:24:11;5.20;99.90
3312;DHT22;1668;49.648;8.570;2023-02-13T10:26:40;5.20;99.90
3312;DHT22;1668;49.648;8.570;2023-02-13T10:29:13;5.30;99.90
3312;DHT22;1668;49.648;8.570;2023-02-13T10:31:58;5.40;99.90
3312;DHT22;1668;49.648;8.570;2023-02-13T10:34:33;5.50;99.90
3312;DHT22;1668;49.648;8.570;2023-02-13T10:37:01;5.60;99.90
3312;DHT22;1668;49.648;8.570;2023-02-13T10:39:30;5.80;76.30
3312;DHT22;1668;49.648;8.570;2023-02-13T10:42:06;5.90;55.70
3312;DHT22;1668;49.648;8.570;2023-02-13T10:44:47;6.00;3.80
3312;DHT22;1668;49.648;8.570;2023-02-13T10:47:30;6.20;6.70
3312;DHT22;1668;49.648;8.570;2023-02-13T10:50:13;6.30;1.00
3312;DHT22;1668;49.648;8.570;2023-02-13T10:52:49;6.40;1.00
3312;DHT22;1668;49.648;8.570;2023-02-13T10:58:13;6.60;1.00
3312;DHT22;1668;49.648;8.570;2023-02-13T11:00:45;6.70;1.00
3312;DHT22;1668;49.648;8.570;2023-02-13T11:03:20;6.80;1.00
3312;DHT22;1668;49.648;8.570;2023-02-13T11:05:49;6.90;1.00
3312;DHT22;1668;49.648;8.570;2023-02-13T11:08:20;7.00;1.00
3312;DHT22;1668;49.648;8.570;2023-02-13T11:10:47;7.10;1.00
3312;DHT22;1668;49.648;8.570;2023-02-13T11:13:16;7.20;1.00
3312;DHT22;1668;49.648;8.570;2023-02-13T11:15:59;7.40;1.00
3312;DHT22;1668;49.648;8.570;2023-02-13T11:18:28;7.50;99.90
3312;DHT22;1668;49.648;8.570;2023-02-13T11:21:04;7.60;1.00
3312;DHT22;1668;49.648;8.570;2023-02-13T11:23:36;7.80;1.00
3312;DHT22;1668;49.648;8.570;2023-02-13T11:26:06;7.80;99.90
3312;DHT22;1668;49.648;8.570;2023-02-13T11:28:37;7.90;99.90
3312;DHT22;1668;49.648;8.570;2023-02-13T11:31:13;8.00;99.90
3312;DHT22;1668;49.648;8.570;2023-02-13T11:33:41;8.10;99.90
3312;DHT22;1668;49.648;8.570;2023-02-13T11:36:14;8.10;99.90
3312;DHT22;1668;49.648;8.570;2023-02-13T11:38:42;8.20;99.90
3312;DHT22;1668;49.648;8.570;2023-02-13T11:41:10;8.30;45.60
3312;DHT22;1668;49.648;8.570;2023-02-13T11:43:45;8.40;99.90
3312;DHT22;1668;49.648;8.570;2023-02-13T11:46:17;8.50;1.00
3312;DHT22;1668;49.648;8.570;2023-02-13T11:48:56;8.50;1.00
3312;DHT22;1668;49.648;8.570;2023-02-13T11:51:41;8.70;99.90
3312;DHT22;1668;49.648;8.570;2023-02-13T11:54:24;8.80;1.00
3312;DHT22;1668;49.648;8.570;2023-02-13T11:56:54;8.90;1.00
3312;DHT22;1668;49.648;8.570;2023-02-13T11:59:22;8.90;1.00
3312;DHT22;1668;49.648;8.570;2023-02-13T12:02:02;9.00;7.30
3312;DHT22;1668;49.648;8.570;2023-02-13T12:04:29;9.00;1.00
3312;DHT22;1668;49.648;8.570;2023-02-13T12:07:02;9.10;1.00
3312;DHT22;1668;49.648;8.570;2023-02-13T12:09:30;9.20;99.90
3312;DHT22;1668;49.648;8.570;2023-02-13T12:11:59;9.30;1.00
3312;DHT22;1668;49.648;8.570;2023-02-13T12:14:32;9.50;1.00
3312;DHT22;1668;49.648;8.570;2023-02-13T12:17:03;9.50;99.90
3312;DHT22;1668;49.648;8.570;2023-02-13T12:19:35;9.60;99.90
3312;DHT22;1668;49.648;8.570;2023-02-13T12:22:20;9.70;99.90
3312;DHT22;1668;49.648;8.570;2023-02-13T12:24:57;9.80;2.00
3312;DHT22;1668;49.648;8.570;2023-02-13T12:27:31;9.90;99.90
3312;DHT22;1668;49.648;8.570;2023-02-13T12:30:40;10.10;99.90
3312;DHT22;1668;49.648;8.570;2023-02-13T12:33:20;10.20;1.00
3312;DHT22;1668;49.648;8.570;2023-02-13T12:35:56;10.30;75.20
3312;DHT22;1668;49.648;8.570;2023-02-13T12:38:37;10.50;99.90
3312;DHT22;1668;49.648;8.570;2023-02-13T12:41:18;10.60;1.00
3312;DHT22;1668;49.648;8.570;2023-02-13T12:46:51;10.90;1.00
3312;DHT22;1668;49.648;8.570;2023-02-13T12:49:39;10.90;99.90
3312;DHT22;1668;49.648;8.570;2023-02-13T12:52:24;11.10;32.40
3312;DHT22;1668;49.648;8.570;2023-02-13T12:55:08;11.20;1.00
3312;DHT22;1668;49.648;8.570;2023-02-13T12:57:49;11.30;40.60
3312;DHT22;1668;49.648;8.570;2023-02-13T13:00:28;11.40;99.90
3312;DHT22;1668;49.648;8.570;2023-02-13T13:03:17;11.60;1.00
3312;DHT22;1668;49.648;8.570;2023-02-13T13:06:03;11.60;1.00
3312;DHT22;1668;49.648;8.570;2023-02-13T13:08:49;11.80;1.00
3312;DHT22;1668;49.648;8.570;2023-02-13T13:11:30;11.90;99.90
3312;DHT22;1668;49.648;8.570;2023-02-13T13:14:06;12.20;99.90
3312;DHT22;1668;49.648;8.570;2023-02-13T13:16:42;12.40;99.90
3312;DHT22;1668;49.648;8.570;2023-02-13T13:19:19;12.70;99.90
3312;DHT22;1668;49.648;8.570;2023-02-13T13:21:52;12.70;99.90
3312;DHT22;1668;49.648;8.570;2023-02-13T13:24:38;13.10;99.90
3312;DHT22;1668;49.648;8.570;2023-02-13T13:27:15;13.40;99.90
3312;DHT22;1668;49.648;8.570;2023-02-13T13:29:47;13.80;99.90
3312;DHT22;1668;49.648;8.570;2023-02-13T13:32:17;13.80;78.40
3312;DHT22;1668;49.648;8.570;2023-02-13T13:34:45;13.80;92.60
3312;DHT22;1668;49.648;8.570;2023-02-13T13:37:18;14.00;94.30
3312;DHT22;1668;49.648;8.570;2023-02-13T13:39:53;13.90;1.00
3312;DHT22;1668;49.648;8.570;2023-02-13T13:42:31;13.40;23.30
3312;DHT22;1668;49.648;8.570;2023-02-13T13:45:13;13.30;99.90
3312;DHT22;1668;49.648;8.570;2023-02-13T13:47:53;13.30;42.60
3312;DHT22;1668;49.648;8.570;2023-02-13T13:50:24;13.20;1.00
3312;DHT22;1668;49.648;8.570;2023-02-13T13:53:09;12.90;9.40
3312;DHT22;1668;49.648;8.570;2023-02-13T13:56:05;12.70;15.80
3312;DHT22;1668;49.648;8.570;2023-02-13T13:58:38;12.60;24.70
3312;DHT22;1668;49.648;8.570;2023-02-13T14:01:26;12.60;99.90
3312;DHT22;1668;49.648;8.570;2023-02-13T14:03:55;12.70;30.10
3312;DHT22;1668;49.648;8.570;2023-02-13T14:06:25;12.70;31.80
3312;DHT22;1668;49.648;8.570;2023-02-13T14:08:55;12.60;46.40
3312;DHT22;1668;49.648;8.570;2023-02-13T14:11:44;12.70;83.80
3312;DHT22;1668;49.648;8.570;2023-02-13T14:17:51;12.50;61.60
3312;DHT22;1668;49.648;8.570;2023-02-13T14:20:34;12.50;99.90
3312;DHT22;1668;49.648;8.570;2023-02-13T14:23:16;12.40;99.90
3312;DHT22;1668;49.648;8.570;2023-02-13T14:25:44;12.40;99.90
3312;DHT22;1668;49.648;8.570;2023-02-13T14:28:21;12.40;99.90
3312;DHT22;1668;49.648;8.570;2023-02-13T14:30:49;12.40;99.90
3312;DHT22;1668;49.648;8.570;2023-02-13T14:33:24;12.40;99.90
3312;DHT22;1668;49.648;8.570;2023-02-13T14:35:59;12.40;99.90
3312;DHT22;1668;49.648;8.570;2023-02-13T14:38:27;12.40;99.90
3312;DHT22;1668;49.648;8.570;2023-02-13T14:40:54;12.50;99.90
3312;DHT22;1668;49.648;8.570;2023-02-13T14:43:27;12.50;99.90
3312;DHT22;1668;49.648;8.570;2023-02-13T14:45:56;12.50;99.90
3312;DHT22;1668;49.648;8.570;2023-02-13T14:48:32;12.60;99.90
3312;DHT22;1668;49.648;8.570;2023-02-13T14:51:01;12.70;99.90
3312;DHT22;1668;49.648;8.570;2023-02-13T14:53:31;12.70;99.90
3312;DHT22;1668;49.648;8.570;2023-02-13T14:56:04;12.60;99.90
3312;DHT22;1668;49.648;8.570;2023-02-13T14:58:35;12.60;99.90
3312;DHT22;1668;49.648;8.570;2023-02-13T15:01:05;12.50;99.90
3312;DHT22;1668;49.648;8.570;2023-02-13T15:03:42;12.50;99.90
3312;DHT22;1668;49.648;8.570;2023-02-13T15:06:13;12.50;99.90
3312;DHT22;1668;49.648;8.570;2023-02-13T15:08:47;12.70;99.90
3312;DHT22;1668;49.648;8.570;2023-02-13T15:11:32;13.00;99.90
3312;DHT22;1668;49.648;8.570;2023-02-13T15:14:23;13.20;36.80
3312;DHT22;1668;49.648;8.570;2023-02-13T15:16:54;13.10;80.50
3312;DHT22;1668;49.648;8.570;2023-02-13T15:19:24;13.10;35.20
3312;DHT22;1668;49.648;8.570;2023-02-13T15:21:54;13.10;36.50
3312;DHT22;1668;49.648;8.570;2023-02-13T15:24:23;13.30;29.60
3312;DHT22;1668;49.648;8.570;2023-02-13T15:26:54;13.40;28.70
3312;DHT22;1668;49.648;8.570;2023-02-13T15:29:23;13.50;1.00
3312;DHT22;1668;49.648;8.570;2023-02-13T15:31:49;13.50;1.00
3312;DHT22;1668;49.648;8.570;2023-02-13T15:34:20;13.50;1.00
3312;DHT22;1668;49.648;8.570;2023-02-13T15:36:48;13.40;1.00
3312;DHT22;1668;49.648;8.570;2023-02-13T15:39:17;13.30;1.00
3312;DHT22;1668;49.648;8.570;2023-02-13T15:41:46;13.10;1.00
3312;DHT22;1668;49.648;8.570;2023-02-13T15:44:19;13.00;4.70
3312;DHT22;1668;49.648;8.570;2023-02-13T15:46:48;12.80;69.00
3312;DHT22;1668;49.648;8.570;2023-02-13T15:49:18;12.70;62.40
3312;DHT22;1668;49.648;8.570;2023-02-13T15:51:48;12.60;99.90
3312;DHT22;1668;49.648;8.570;2023-02-13T15:54:23;12.50;99.90
3312;DHT22;1668;49.648;8.570;2023-02-13T15:56:52;12.40;99.90
3312;DHT22;1668;49.648;8.570;2023-02-13T15:59:19;12.40;99.90
3312;DHT22;1668;49.648;8.570;2023-02-13T16:01:47;12.30;99.90
3312;DHT22;1668;49.648;8.570;2023-02-13T16:04:16;12.20;99.90
3312;DHT22;1668;49.648;8.570;2023-02-13T16:06:45;12.20;99.90
3312;DHT22;1668;49.648;8.570;2023-02-13T16:09:30;12.10;99.90
3312;DHT22;1668;49.648;8.570;2023-02-13T16:12:01;12.00;99.90
3312;DHT22;1668;49.648;8.570;2023-02-13T16:14:29;12.00;99.90
3312;DHT22;1668;49.648;8.570;2023-02-13T16:17:00;11.90;99.90
3312;DHT22;1668;49.648;8.570;2023-02-13T16:19:31;11.80;99.90
3312;DHT22;1668;49.648;8.570;2023-02-13T16:22:05;11.80;99.90
3312;DHT22;1668;49.648;8.570;2023-02-13T16:24:35;11.70;1.00
3312;DHT22;1668;49.648;8.570;2023-02-13T16:27:02;11.60;1.00
3312;DHT22;1668;49.648;8.570;2023-02-13T16:29:28;11.50;1.00
3312;DHT22;1668;49.648;8.570;2023-02-13T16:32:04;11.50;1.00
3312;DHT22;1668;49.648;8.570;2023-02-13T16:34:35;11.40;1.00
3312;DHT22;1668;49.648;8.570;2023-02-13T16:37:02;11.30;1.00
3312;DHT22;1668;49.648;8.570;2023-02-13T16:39:31;11.30;1.00
3312;DHT22;1668;49.648;8.570;2023-02-13T16:42:00;11.20;1.00
3312;DHT22;1668;49.648;8.570;2023-02-13T16:44:28;11.10;22.70
3312;DHT22;1668;49.648;8.570;2023-02-13T16:47:00;11.10;99.90
3312;DHT22;1668;49.648;8.570;2023-02-13T16:49:28;11.00;99.90
3312;DHT22;1668;49.648;8.570;2023-02-13T16:52:03;10.90;99.90
3312;DHT22;1668;49.648;8.570;2023-02-13T16:54:35;10.80;99.90
3312;DHT22;1668;49.648;8.570;2023-02-13T16:57:16;10.70;1.00
3312;DHT22;1668;49.648;8.570;2023-02-13T17:00:03;10.60;1.00
3312;DHT22;1668;49.648;8.570;2023-02-13T17:02:33;10.60;1.00